sensor_id;sensor_type;location;lat;lon;timestamp;temperature;humidity
5578;DHT22;2811;51.900;10.734;2023-06-19T00:02:26;20.10;99.90
5578;DHT22;2811;51.900;10.734;2023-06-19T00:04:54;20.10;99.90
5578;DHT22;2811;51.900;10.734;2023-06-19T00:07:20;20.10;99.90
5578;DHT22;2811;51.900;10.734;2023-06-19T00:09:47;20.20;99.70
5578;DHT22;2811;51.900;10.734;2023-06-19T00:12:14;20.30;99.10
5578;DHT22;2811;51.900;10.734;2023-06-19T00:14:40;20.40;99.10
5578;DHT22;2811;51.900;10.734;2023-06-19T00:17:08;20.40;98.80
5578;DHT22;2811;51.900;10.734;2023-06-19T00:19:34;20.50;98.60
5578;DHT22;2811;51.900;10.734;2023-06-19T00:22:03;20.50;98.50
5578;DHT22;2811;51.900;10.734;2023-06-19T00:24:30;20.50;98.30
5578;DHT22;2811;51.900;10.734;2023-06-19T00:26:56;20.40;98.40
5578;DHT22;2811;51.900;10.734;2023-06-19T00:29:27;20.40;98.60
5578;DHT22;2811;51.900;10.734;2023-06-19T00:31:54;20.30;98.70
5578;DHT22;2811;51.900;10.734;2023-06-19T00:34:21;20.20;98.90
5578;DHT22;2811;51.900;10.734;2023-06-19T00:36:47;20.10;99.20
5578;DHT22;2811;51.900;10.734;2023-06-19T00:39:15;20.10;99.50
5578;DHT22;2811;51.900;10.734;2023-06-19T00:41:42;20.00;99.50
5578;DHT22;2811;51.900;10.734;2023-06-19T00:44:09;20.10;99.40
5578;DHT22;2811;51.900;10.734;2023-06-19T00:46:37;20.20;99.00
5578;DHT22;2811;51.900;10.734;2023-06-19T00:49:06;20.10;99.20
5578;DHT22;2811;51.900;10.734;2023-06-19T00:51:33;20.00;99.10
5578;DHT22;2811;51.900;10.734;2023-06-19T00:54:00;20.00;99.30
5578;DHT22;2811;51.900;10.734;2023-06-19T00:56:28;19.90;99.30
5578;DHT22;2811;51.900;10.734;2023-06-19T00:58:55;20.00;99.40
5578;DHT22;2811;51.900;10.734;2023-06-19T01:01:22;20.00;99.30
5578;DHT22;2811;51.900;10.734;2023-06-19T01:03:49;20.00;99.20
5578;DHT22;2811;51.900;10.734;2023-06-19T01:06:21;20.10;99.10
5578;DHT22;2811;51.900;10.734;2023-06-19T01:08:55;20.20;99.50
5578;DHT22;2811;51.900;10.734;2023-06-19T01:11:27;20.10;99.20
5578;DHT22;2811;51.900;10.734;2023-06-19T01:13:59;20.10;99.20
5578;DHT22;2811;51.900;10.734;2023-06-19T01:16:28;20.00;99.60
5578;DHT22;2811;51.900;10.734;2023-06-19T01:18:55;20.10;99.80
5578;DHT22;2811;51.900;10.734;2023-06-19T01:21:23;20.10;99.60
5578;DHT22;2811;51.900;10.734;2023-06-19T01:23:51;20.00;99.60
5578;DHT22;2811;51.900;10.734;2023-06-19T01:26:17;20.10;99.60
5578;DHT22;2811;51.900;10.734;2023-06-19T01:28:45;20.00;99.80
5578;DHT22;2811;51.900;10.734;2023-06-19T01:31:15;19.80;99.90
5578;DHT22;2811;51.900;10.734;2023-06-19T01:33:45;19.60;99.90
5578;DHT22;2811;51.900;10.734;2023-06-19T01:36:12;19.60;99.90
5578;DHT22;2811;51.900;10.734;2023-06-19T01:38:41;19.70;99.90
5578;DHT22;2811;51.900;10.734;2023-06-19T01:41:11;19.70;99.90
5578;DHT22;2811;51.900;10.734;2023-06-19T01:43:40;19.70;99.90
5578;DHT22;2811;51.900;10.734;2023-06-19T01:46:07;19.80;99.90
5578;DHT22;2811;51.900;10.734;2023-06-19T01:48:35;19.90;99.90
5578;DHT22;2811;51.900;10.734;2023-06-19T01:51:01;19.80;99.90
5578;DHT22;2811;51.900;10.734;2023-06-19T01:53:30;19.70;99.90
5578;DHT22;2811;51.900;10.734;2023-06-19T01:55:57;19.70;99.90
5578;DHT22;2811;51.900;10.734;2023-06-19T01:58:25;19.70;99.90
5578;DHT22;2811;51.900;10.734;2023-06-19T02:00:51;19.70;99.90
5578;DHT22;2811;51.900;10.734;2023-06-19T02:03:18;19.70;99.90
5578;DHT22;2811;51.900;10.734;2023-06-19T02:05:45;19.70;99.90
5578;DHT22;2811;51.900;10.734;2023-06-19T02:08:11;19.80;99.90
5578;DHT22;2811;51.900;10.734;2023-06-19T02:10:38;19.80;99.90
5578;DHT22;2811;51.900;10.734;2023-06-19T02:13:05;19.90;99.90
5578;DHT22;2811;51.900;10.734;2023-06-19T02:15:33;20.00;99.90
5578;DHT22;2811;51.900;10.734;2023-06-19T02:17:59;19.90;99.90
5578;DHT22;2811;51.900;10.734;2023-06-19T02:20:26;20.00;99.70
5578;DHT22;2811;51.900;10.734;2023-06-19T02:22:52;20.20;99.40
5578;DHT22;2811;51.900;10.734;2023-06-19T02:25:19;20.40;99.00
5578;DHT22;2811;51.900;10.734;2023-06-19T02:27:46;20.40;98.90
5578;DHT22;2811;51.900;10.734;2023-06-19T02:30:13;20.40;99.00
5578;DHT22;2811;51.900;10.734;2023-06-19T02:32:41;20.50;98.80
5578;DHT22;2811;51.900;10.734;2023-06-19T02:35:10;20.50;98.70
5578;DHT22;2811;51.900;10.734;2023-06-19T02:37:37;20.60;98.60
5578;DHT22;2811;51.900;10.734;2023-06-19T02:40:04;20.60;98.60
5578;DHT22;2811;51.900;10.734;2023-06-19T02:42:31;20.60;98.50
5578;DHT22;2811;51.900;10.734;2023-06-19T02:44:58;20.60;98.30
5578;DHT22;2811;51.900;10.734;2023-06-19T02:47:29;20.70;98.30
5578;DHT22;2811;51.900;10.734;2023-06-19T02:49:58;20.80;98.30
5578;DHT22;2811;51.900;10.734;2023-06-19T02:52:24;20.80;98.10
5578;DHT22;2811;51.900;10.734;2023-06-19T02:54:51;20.90;98.00
5578;DHT22;2811;51.900;10.734;2023-06-19T02:57:18;20.90;97.80
5578;DHT22;2811;51.900;10.734;2023-06-19T02:59:44;20.90;97.80
5578;DHT22;2811;51.900;10.734;2023-06-19T03:02:11;21.00;97.80
5578;DHT22;2811;51.900;10.734;2023-06-19T03:04:39;21.30;97.60
5578;DHT22;2811;51.900;10.734;2023-06-19T03:07:07;21.10;97.50
5578;DHT22;2811;51.900;10.734;2023-06-19T03:09:34;21.20;97.40
5578;DHT22;2811;51.900;10.734;2023-06-19T03:12:00;21.20;97.20
5578;DHT22;2811;51.900;10.734;2023-06-19T03:14:27;21.20;97.00
5578;DHT22;2811;51.900;10.734;2023-06-19T03:16:54;21.20;97.10
5578;DHT22;2811;51.900;10.734;2023-06-19T03:19:20;21.20;97.10
5578;DHT22;2811;51.900;10.734;2023-06-19T03:21:47;21.10;97.50
5578;DHT22;2811;51.900;10.734;2023-06-19T03:24:15;21.00;97.70
5578;DHT22;2811;51.900;10.734;2023-06-19T03:26:42;21.00;97.40
5578;DHT22;2811;51.900;10.734;2023-06-19T03:29:08;21.10;97.40
5578;DHT22;2811;51.900;10.734;2023-06-19T03:31:35;21.10;97.20
5578;DHT22;2811;51.900;10.734;2023-06-19T03:34:02;21.20;97.10
5578;DHT22;2811;51.900;10.734;2023-06-19T03:36:28;21.20;97.10
5578;DHT22;2811;51.900;10.734;2023-06-19T03:38:55;21.30;97.00
5578;DHT22;2811;51.900;10.734;2023-06-19T03:41:23;21.30;96.90
5578;DHT22;2811;51.900;10.734;2023-06-19T03:43:50;21.30;96.70
5578;DHT22;2811;51.900;10.734;2023-06-19T03:46:16;21.40;96.80
5578;DHT22;2811;51.900;10.734;2023-06-19T03:48:43;21.40;96.60
5578;DHT22;2811;51.900;10.734;2023-06-19T03:51:10;21.40;96.40
5578;DHT22;2811;51.900;10.734;2023-06-19T03:53:36;21.40;96.40
5578;DHT22;2811;51.900;10.734;2023-06-19T03:56:03;21.50;96.60
5578;DHT22;2811;51.900;10.734;2023-06-19T03:58:32;21.50;96.60
5578;DHT22;2811;51.900;10.734;2023-06-19T04:00:59;21.50;97.00
5578;DHT22;2811;51.900;10.734;2023-06-19T04:03:25;21.50;99.10
5578;DHT22;2811;51.900;10.734;2023-06-19T04:05:52;21.40;99.90
5578;DHT22;2811;51.900;10.734;2023-06-19T04:08:18;21.20;99.90
5578;DHT22;2811;51.900;10.734;2023-06-19T04:10:45;20.90;99.90
5578;DHT22;2811;51.900;10.734;2023-06-19T04:13:12;20.90;99.90
5578;DHT22;2811;51.900;10.734;2023-06-19T04:15:40;20.90;99.90
5578;DHT22;2811;51.900;10.734;2023-06-19T04:18:09;20.90;99.90
5578;DHT22;2811;51.900;10.734;2023-06-19T04:20:36;20.90;99.90
5578;DHT22;2811;51.900;10.734;2023-06-19T04:23:02;21.10;99.90
5578;DHT22;2811;51.900;10.734;2023-06-19T04:25:29;20.90;99.90
5578;DHT22;2811;51.900;10.734;2023-06-19T04:27:56;20.90;99.90
5578;DHT22;2811;51.900;10.734;2023-06-19T04:30:22;21.00;99.90
5578;DHT22;2811;51.900;10.734;2023-06-19T04:32:50;20.90;99.90
5578;DHT22;2811;51.900;10.734;2023-06-19T04:35:18;20.90;99.90
5578;DHT22;2811;51.900;10.734;2023-06-19T04:37:45;20.90;99.90
5578;DHT22;2811;51.900;10.734;2023-06-19T04:40:14;21.00;99.90
5578;DHT22;2811;51.900;10.734;2023-06-19T04:42:40;20.90;99.90
5578;DHT22;2811;51.900;10.734;2023-06-19T04:45:08;20.60;99.90
5578;DHT22;2811;51.900;10.734;2023-06-19T04:47:34;20.50;99.90
5578;DHT22;2811;51.900;10.734;2023-06-19T04:50:03;20.40;99.90
5578;DHT22;2811;51.900;10.734;2023-06-19T04:52:30;20.30;99.90
5578;DHT22;2811;51.900;10.734;2023-06-19T04:54:58;20.20;99.90
5578;DHT22;2811;51.900;10.734;2023-06-19T04:57:25;20.20;99.90
5578;DHT22;2811;51.900;10.734;2023-06-19T04:59:51;20.20;99.90
5578;DHT22;2811;51.900;10.734;2023-06-19T05:02:18;20.00;99.90
5578;DHT22;2811;51.900;10.734;2023-06-19T05:04:45;19.80;99.90
5578;DHT22;2811;51.900;10.734;2023-06-19T05:07:13;20.00;99.90
5578;DHT22;2811;51.900;10.734;2023-06-19T05:09:40;19.90;99.90
5578;DHT22;2811;51.900;10.734;2023-06-19T05:12:08;20.00;99.90
5578;DHT22;2811;51.900;10.734;2023-06-19T05:14:35;19.90;99.90
5578;DHT22;2811;51.900;10.734;2023-06-19T05:17:01;19.90;99.90
5578;DHT22;2811;51.900;10.734;2023-06-19T05:19:28;20.00;99.90
5578;DHT22;2811;51.900;10.734;2023-06-19T05:21:54;20.10;99.90
5578;DHT22;2811;51.900;10.734;2023-06-19T05:24:23;20.10;99.90
5578;DHT22;2811;51.900;10.734;2023-06-19T05:26:50;20.20;99.90
5578;DHT22;2811;51.900;10.734;2023-06-19T05:29:17;20.30;99.90
5578;DHT22;2811;51.900;10.734;2023-06-19T05:31:43;20.20;99.90
5578;DHT22;2811;51.900;10.734;2023-06-19T05:34:10;20.20;99.90
5578;DHT22;2811;51.900;10.734;2023-06-19T05:36:36;20.10;99.90
5578;DHT22;2811;51.900;10.734;2023-06-19T05:39:03;20.20;99.90
5578;DHT22;2811;51.900;10.734;2023-06-19T05:41:31;20.30;99.90
5578;DHT22;2811;51.900;10.734;2023-06-19T05:43:58;20.70;99.90
5578;DHT22;2811;51.900;10.734;2023-06-19T05:46:25;20.80;99.90
5578;DHT22;2811;51.900;10.734;2023-06-19T05:48:52;20.50;99.90
5578;DHT22;2811;51.900;10.734;2023-06-19T05:51:20;20.60;99.90
5578;DHT22;2811;51.900;10.734;2023-06-19T05:53:46;20.60;99.90
5578;DHT22;2811;51.900;10.734;2023-06-19T05:56:14;20.60;99.90
5578;DHT22;2811;51.900;10.734;2023-06-19T05:58:43;20.60;99.90
5578;DHT22;2811;51.900;10.734;2023-06-19T06:01:09;20.50;99.90
5578;DHT22;2811;51.900;10.734;2023-06-19T06:03:36;20.60;99.90
5578;DHT22;2811;51.900;10.734;2023-06-19T06:06:04;20.40;99.90
5578;DHT22;2811;51.900;10.734;2023-06-19T06:08:31;19.90;99.90
5578;DHT22;2811;51.900;10.734;2023-06-19T06:10:58;19.70;99.90
5578;DHT22;2811;51.900;10.734;2023-06-19T06:13:24;19.90;99.90
5578;DHT22;2811;51.900;10.734;2023-06-19T06:15:52;20.10;99.90
5578;DHT22;2811;51.900;10.734;2023-06-19T06:18:19;20.60;99.90
5578;DHT22;2811;51.900;10.734;2023-06-19T06:20:46;20.60;99.90
5578;DHT22;2811;51.900;10.734;2023-06-19T06:23:12;20.80;99.90
5578;DHT22;2811;51.900;10.734;2023-06-19T06:25:39;20.80;99.90
5578;DHT22;2811;51.900;10.734;2023-06-19T06:28:06;20.80;99.90
5578;DHT22;2811;51.900;10.734;2023-06-19T06:30:32;20.70;99.90
5578;DHT22;2811;51.900;10.734;2023-06-19T06:33:00;20.80;99.90
5578;DHT22;2811;51.900;10.734;2023-06-19T06:35:27;20.80;99.90
5578;DHT22;2811;51.900;10.734;2023-06-19T06:37:54;20.80;99.90
5578;DHT22;2811;51.900;10.734;2023-06-19T06:40:21;20.40;99.90
5578;DHT22;2811;51.900;10.734;2023-06-19T06:42:47;20.20;99.90
5578;DHT22;2811;51.900;10.734;2023-06-19T06:45:14;20.40;99.90
5578;DHT22;2811;51.900;10.734;2023-06-19T06:47:41;20.60;99.90
5578;DHT22;2811;51.900;10.734;2023-06-19T06:50:09;20.50;99.90
5578;DHT22;2811;51.900;10.734;2023-06-19T06:52:36;20.40;99.90
5578;DHT22;2811;51.900;10.734;2023-06-19T06:55:03;20.60;99.90
5578;DHT22;2811;51.900;10.734;2023-06-19T06:57:30;20.60;99.90
5578;DHT22;2811;51.900;10.734;2023-06-19T06:59:57;20.60;99.90
5578;DHT22;2811;51.900;10.734;2023-06-19T07:02:23;20.50;99.90
5578;DHT22;2811;51.900;10.734;2023-06-19T07:04:50;20.70;99.90
5578;DHT22;2811;51.900;10.734;2023-06-19T07:07:19;20.70;99.90
5578;DHT22;2811;51.900;10.734;2023-06-19T07:09:46;20.80;99.90
5578;DHT22;2811;51.900;10.734;2023-06-19T07:12:12;20.90;99.90
5578;DHT22;2811;51.900;10.734;2023-06-19T07:14:39;21.00;99.90
5578;DHT22;2811;51.900;10.734;2023-06-19T07:17:06;21.20;99.90
5578;DHT22;2811;51.900;10.734;2023-06-19T07:19:33;21.40;99.90
5578;DHT22;2811;51.900;10.734;2023-06-19T07:22:00;21.40;99.90
5578;DHT22;2811;51.900;10.734;2023-06-19T07:24:28;20.90;99.90
5578;DHT22;2811;51.900;10.734;2023-06-19T07:26:54;20.70;99.90
5578;DHT22;2811;51.900;10.734;2023-06-19T07:29:21;21.00;99.90
5578;DHT22;2811;51.900;10.734;2023-06-19T07:31:48;21.30;99.90
5578;DHT22;2811;51.900;10.734;2023-06-19T07:34:15;21.70;99.90
5578;DHT22;2811;51.900;10.734;2023-06-19T07:36:41;21.90;99.90
5578;DHT22;2811;51.900;10.734;2023-06-19T07:39:08;22.10;99.90
5578;DHT22;2811;51.900;10.734;2023-06-19T07:41:36;22.20;99.90
5578;DHT22;2811;51.900;10.734;2023-06-19T07:44:04;22.20;99.90
5578;DHT22;2811;51.900;10.734;2023-06-19T07:46:30;22.20;99.90
5578;DHT22;2811;51.900;10.734;2023-06-19T07:48:57;22.20;99.90
5578;DHT22;2811;51.900;10.734;2023-06-19T07:51:24;22.10;99.90
5578;DHT22;2811;51.900;10.734;2023-06-19T07:53:50;22.20;99.90
5578;DHT22;2811;51.900;10.734;2023-06-19T07:56:17;22.30;99.90
5578;DHT22;2811;51.900;10.734;2023-06-19T07:58:45;22.40;99.90
5578;DHT22;2811;51.900;10.734;2023-06-19T08:01:12;22.60;99.90
5578;DHT22;2811;51.900;10.734;2023-06-19T08:03:39;22.80;99.90
5578;DHT22;2811;51.900;10.734;2023-06-19T08:06:05;23.10;99.90
5578;DHT22;2811;51.900;10.734;2023-06-19T08:08:32;23.10;99.90
5578;DHT22;2811;51.900;10.734;2023-06-19T08:10:59;23.20;99.90
5578;DHT22;2811;51.900;10.734;2023-06-19T08:13:25;23.50;99.90
5578;DHT22;2811;51.900;10.734;2023-06-19T08:15:53;23.80;99.90
5578;DHT22;2811;51.900;10.734;2023-06-19T08:18:20;24.10;99.90
5578;DHT22;2811;51.900;10.734;2023-06-19T08:20:47;24.50;99.90
5578;DHT22;2811;51.900;10.734;2023-06-19T08:23:13;24.80;99.90
5578;DHT22;2811;51.900;10.734;2023-06-19T08:25:40;25.00;99.90
5578;DHT22;2811;51.900;10.734;2023-06-19T08:28:07;25.30;99.90
5578;DHT22;2811;51.900;10.734;2023-06-19T08:30:34;25.30;99.90
5578;DHT22;2811;51.900;10.734;2023-06-19T08:33:02;25.20;99.90
5578;DHT22;2811;51.900;10.734;2023-06-19T08:35:29;25.20;99.90
5578;DHT22;2811;51.900;10.734;2023-06-19T08:37:55;25.50;99.90
5578;DHT22;2811;51.900;10.734;2023-06-19T08:40:22;25.50;99.90
5578;DHT22;2811;51.900;10.734;2023-06-19T08:42:49;25.70;99.90
5578;DHT22;2811;51.900;10.734;2023-06-19T08:45:17;25.80;99.90
5578;DHT22;2811;51.900;10.734;2023-06-19T08:47:46;26.00;99.60
5578;DHT22;2811;51.900;10.734;2023-06-19T08:50:15;26.00;99.10
5578;DHT22;2811;51.900;10.734;2023-06-19T08:52:41;25.90;99.40
5578;DHT22;2811;51.900;10.734;2023-06-19T08:55:08;25.70;98.90
5578;DHT22;2811;51.900;10.734;2023-06-19T08:57:37;26.00;98.90
5578;DHT22;2811;51.900;10.734;2023-06-19T09:00:04;26.40;98.60
5578;DHT22;2811;51.900;10.734;2023-06-19T09:02:43;26.80;98.20
5578;DHT22;2811;51.900;10.734;2023-06-19T09:05:15;26.80;96.60
5578;DHT22;2811;51.900;10.734;2023-06-19T09:07:42;27.00;96.70
5578;DHT22;2811;51.900;10.734;2023-06-19T09:10:17;27.30;95.50
5578;DHT22;2811;51.900;10.734;2023-06-19T09:12:44;27.30;95.20
5578;DHT22;2811;51.900;10.734;2023-06-19T09:15:21;27.40;94.90
5578;DHT22;2811;51.900;10.734;2023-06-19T09:18:00;27.60;94.50
5578;DHT22;2811;51.900;10.734;2023-06-19T09:20:28;27.80;94.30
5578;DHT22;2811;51.900;10.734;2023-06-19T09:22:55;28.10;93.30
5578;DHT22;2811;51.900;10.734;2023-06-19T09:25:22;28.40;91.60
5578;DHT22;2811;51.900;10.734;2023-06-19T09:27:49;27.90;88.00
5578;DHT22;2811;51.900;10.734;2023-06-19T09:30:16;28.20;88.20
5578;DHT22;2811;51.900;10.734;2023-06-19T09:32:43;28.70;87.30
5578;DHT22;2811;51.900;10.734;2023-06-19T09:35:09;29.10;83.40
5578;DHT22;2811;51.900;10.734;2023-06-19T09:37:39;29.20;83.40
5578;DHT22;2811;51.900;10.734;2023-06-19T09:40:07;29.50;83.10
5578;DHT22;2811;51.900;10.734;2023-06-19T09:42:37;29.60;83.30
5578;DHT22;2811;51.900;10.734;2023-06-19T09:45:05;29.80;82.50
5578;DHT22;2811;51.900;10.734;2023-06-19T09:47:36;29.50;86.20
5578;DHT22;2811;51.900;10.734;2023-06-19T09:50:03;29.10;83.60
5578;DHT22;2811;51.900;10.734;2023-06-19T09:52:31;28.90;88.30
5578;DHT22;2811;51.900;10.734;2023-06-19T09:55:02;28.80;86.40
5578;DHT22;2811;51.900;10.734;2023-06-19T09:57:30;28.70;87.10
5578;DHT22;2811;51.900;10.734;2023-06-19T09:59:58;28.80;85.70
5578;DHT22;2811;51.900;10.734;2023-06-19T10:02:34;28.90;86.10
5578;DHT22;2811;51.900;10.734;2023-06-19T10:05:01;29.20;84.30
5578;DHT22;2811;51.900;10.734;2023-06-19T10:07:33;29.40;82.00
5578;DHT22;2811;51.900;10.734;2023-06-19T10:10:03;29.40;83.40
5578;DHT22;2811;51.900;10.734;2023-06-19T10:12:39;29.40;83.80
5578;DHT22;2811;51.900;10.734;2023-06-19T10:15:15;29.40;86.00
5578;DHT22;2811;51.900;10.734;2023-06-19T10:17:46;29.40;83.50
5578;DHT22;2811;51.900;10.734;2023-06-19T10:20:22;29.50;84.20
5578;DHT22;2811;51.900;10.734;2023-06-19T10:22:52;29.10;86.30
5578;DHT22;2811;51.900;10.734;2023-06-19T10:25:22;29.10;88.50
5578;DHT22;2811;51.900;10.734;2023-06-19T10:27:49;29.40;86.00
5578;DHT22;2811;51.900;10.734;2023-06-19T10:30:18;29.80;86.20
5578;DHT22;2811;51.900;10.734;2023-06-19T10:32:45;30.00;82.30
5578;DHT22;2811;51.900;10.734;2023-06-19T10:35:11;30.00;84.70
5578;DHT22;2811;51.900;10.734;2023-06-19T10:37:39;29.80;86.80
5578;DHT22;2811;51.900;10.734;2023-06-19T10:40:07;29.70;87.20
5578;DHT22;2811;51.900;10.734;2023-06-19T10:42:36;29.80;87.10
5578;DHT22;2811;51.900;10.734;2023-06-19T10:45:05;29.40;87.20
5578;DHT22;2811;51.900;10.734;2023-06-19T10:47:32;29.50;87.50
5578;DHT22;2811;51.900;10.734;2023-06-19T10:49:58;29.60;86.80
5578;DHT22;2811;51.900;10.734;2023-06-19T10:52:28;29.90;88.50
5578;DHT22;2811;51.900;10.734;2023-06-19T10:54:55;30.20;87.60
5578;DHT22;2811;51.900;10.734;2023-06-19T10:57:27;30.40;87.70
5578;DHT22;2811;51.900;10.734;2023-06-19T10:59:55;30.40;84.90
5578;DHT22;2811;51.900;10.734;2023-06-19T11:02:22;30.10;87.00
5578;DHT22;2811;51.900;10.734;2023-06-19T11:04:52;29.90;88.30
5578;DHT22;2811;51.900;10.734;2023-06-19T11:07:19;29.80;87.70
5578;DHT22;2811;51.900;10.734;2023-06-19T11:09:45;29.90;87.90
5578;DHT22;2811;51.900;10.734;2023-06-19T11:12:18;30.00;89.60
5578;DHT22;2811;51.900;10.734;2023-06-19T11:14:44;30.10;89.90
5578;DHT22;2811;51.900;10.734;2023-06-19T11:17:13;30.40;88.60
5578;DHT22;2811;51.900;10.734;2023-06-19T11:19:39;30.30;90.00
5578;DHT22;2811;51.900;10.734;2023-06-19T11:22:09;30.30;88.70
5578;DHT22;2811;51.900;10.734;2023-06-19T11:24:36;30.60;88.10
5578;DHT22;2811;51.900;10.734;2023-06-19T11:27:03;30.10;88.20
5578;DHT22;2811;51.900;10.734;2023-06-19T11:29:31;30.10;87.40
5578;DHT22;2811;51.900;10.734;2023-06-19T11:32:05;30.30;87.10
5578;DHT22;2811;51.900;10.734;2023-06-19T11:34:34;30.40;87.60
5578;DHT22;2811;51.900;10.734;2023-06-19T11:37:02;30.70;84.40
5578;DHT22;2811;51.900;10.734;2023-06-19T11:39:31;30.60;83.50
5578;DHT22;2811;51.900;10.734;2023-06-19T11:41:58;30.40;83.80
5578;DHT22;2811;51.900;10.734;2023-06-19T11:44:25;30.60;81.80
5578;DHT22;2811;51.900;10.734;2023-06-19T11:46:56;30.30;84.10
5578;DHT22;2811;51.900;10.734;2023-06-19T11:49:24;30.40;84.80
5578;DHT22;2811;51.900;10.734;2023-06-19T11:51:52;30.40;83.90
5578;DHT22;2811;51.900;10.734;2023-06-19T11:54:19;30.70;83.30
5578;DHT22;2811;51.900;10.734;2023-06-19T11:56:46;31.00;83.10
5578;DHT22;2811;51.900;10.734;2023-06-19T11:59:13;31.20;83.40
5578;DHT22;2811;51.900;10.734;2023-06-19T12:01:40;31.40;82.70
5578;DHT22;2811;51.900;10.734;2023-06-19T12:04:07;31.40;81.30
5578;DHT22;2811;51.900;10.734;2023-06-19T12:06:34;31.30;82.10
5578;DHT22;2811;51.900;10.734;2023-06-19T12:09:03;31.40;81.80
5578;DHT22;2811;51.900;10.734;2023-06-19T12:11:31;31.10;82.30
5578;DHT22;2811;51.900;10.734;2023-06-19T12:13:57;30.80;84.20
5578;DHT22;2811;51.900;10.734;2023-06-19T12:16:24;30.60;83.90
5578;DHT22;2811;51.900;10.734;2023-06-19T12:18:51;30.20;85.30
5578;DHT22;2811;51.900;10.734;2023-06-19T12:21:17;30.10;85.90
5578;DHT22;2811;51.900;10.734;2023-06-19T12:23:44;29.90;86.70
5578;DHT22;2811;51.900;10.734;2023-06-19T12:26:12;30.30;87.80
5578;DHT22;2811;51.900;10.734;2023-06-19T12:28:39;30.10;88.50
5578;DHT22;2811;51.900;10.734;2023-06-19T12:31:06;29.90;89.20
5578;DHT22;2811;51.900;10.734;2023-06-19T12:33:32;29.90;89.90
5578;DHT22;2811;51.900;10.734;2023-06-19T12:35:59;30.00;90.00
5578;DHT22;2811;51.900;10.734;2023-06-19T12:38:26;30.20;89.70
5578;DHT22;2811;51.900;10.734;2023-06-19T12:40:53;30.50;88.10
5578;DHT22;2811;51.900;10.734;2023-06-19T12:43:21;30.60;88.40
5578;DHT22;2811;51.900;10.734;2023-06-19T12:45:48;30.60;88.10
5578;DHT22;2811;51.900;10.734;2023-06-19T12:48:14;30.70;88.00
5578;DHT22;2811;51.900;10.734;2023-06-19T12:50:42;30.50;88.10
5578;DHT22;2811;51.900;10.734;2023-06-19T12:53:09;30.40;89.10
5578;DHT22;2811;51.900;10.734;2023-06-19T12:55:36;30.30;88.90
5578;DHT22;2811;51.900;10.734;2023-06-19T12:58:03;30.10;89.90
5578;DHT22;2811;51.900;10.734;2023-06-19T13:00:31;30.20;90.70
5578;DHT22;2811;51.900;10.734;2023-06-19T13:02:58;30.50;89.90
5578;DHT22;2811;51.900;10.734;2023-06-19T13:05:24;30.80;87.60
5578;DHT22;2811;51.900;10.734;2023-06-19T13:07:51;30.70;88.50
5578;DHT22;2811;51.900;10.734;2023-06-19T13:10:18;30.70;88.90
5578;DHT22;2811;51.900;10.734;2023-06-19T13:12:44;30.50;88.40
5578;DHT22;2811;51.900;10.734;2023-06-19T13:15:11;30.50;89.00
5578;DHT22;2811;51.900;10.734;2023-06-19T13:17:39;30.40;88.90
5578;DHT22;2811;51.900;10.734;2023-06-19T13:20:07;30.30;88.80
5578;DHT22;2811;51.900;10.734;2023-06-19T13:22:34;30.00;90.30
5578;DHT22;2811;51.900;10.734;2023-06-19T13:25:01;29.80;90.70
5578;DHT22;2811;51.900;10.734;2023-06-19T13:27:27;30.00;91.00
5578;DHT22;2811;51.900;10.734;2023-06-19T13:29:54;30.30;90.60
5578;DHT22;2811;51.900;10.734;2023-06-19T13:32:21;30.40;90.00
5578;DHT22;2811;51.900;10.734;2023-06-19T13:34:49;30.40;90.40
5578;DHT22;2811;51.900;10.734;2023-06-19T13:37:16;30.50;90.10
5578;DHT22;2811;51.900;10.734;2023-06-19T13:39:42;30.40;90.50
5578;DHT22;2811;51.900;10.734;2023-06-19T13:42:09;30.30;90.40
5578;DHT22;2811;51.900;10.734;2023-06-19T13:44:36;30.20;90.70
5578;DHT22;2811;51.900;10.734;2023-06-19T13:47:03;30.30;90.70
5578;DHT22;2811;51.900;10.734;2023-06-19T13:49:30;30.10;91.10
5578;DHT22;2811;51.900;10.734;2023-06-19T13:51:58;30.00;91.60
5578;DHT22;2811;51.900;10.734;2023-06-19T13:54:25;30.00;91.30
5578;DHT22;2811;51.900;10.734;2023-06-19T13:56:51;29.90;91.30
5578;DHT22;2811;51.900;10.734;2023-06-19T13:59:18;30.00;91.80
5578;DHT22;2811;51.900;10.734;2023-06-19T14:01:45;30.10;91.70
5578;DHT22;2811;51.900;10.734;2023-06-19T14:04:11;30.10;91.50
5578;DHT22;2811;51.900;10.734;2023-06-19T14:06:38;30.30;91.90
5578;DHT22;2811;51.900;10.734;2023-06-19T14:09:09;30.30;91.40
5578;DHT22;2811;51.900;10.734;2023-06-19T14:11:36;30.50;91.50
5578;DHT22;2811;51.900;10.734;2023-06-19T14:14:02;30.70;91.20
5578;DHT22;2811;51.900;10.734;2023-06-19T14:16:29;31.10;91.00
5578;DHT22;2811;51.900;10.734;2023-06-19T14:18:55;31.00;90.60
5578;DHT22;2811;51.900;10.734;2023-06-19T14:21:22;30.90;90.90
5578;DHT22;2811;51.900;10.734;2023-06-19T14:23:49;31.10;91.20
5578;DHT22;2811;51.900;10.734;2023-06-19T14:26:17;31.10;90.60
5578;DHT22;2811;51.900;10.734;2023-06-19T14:28:44;30.90;90.80
5578;DHT22;2811;51.900;10.734;2023-06-19T14:31:11;30.70;91.40
5578;DHT22;2811;51.900;10.734;2023-06-19T14:33:37;30.60;91.80
5578;DHT22;2811;51.900;10.734;2023-06-19T14:36:04;30.30;91.90
5578;DHT22;2811;51.900;10.734;2023-06-19T14:38:31;29.90;92.70
5578;DHT22;2811;51.900;10.734;2023-06-19T14:40:59;29.90;93.00
5578;DHT22;2811;51.900;10.734;2023-06-19T14:43:28;30.00;92.90
5578;DHT22;2811;51.900;10.734;2023-06-19T14:45:55;30.50;92.60
5578;DHT22;2811;51.900;10.734;2023-06-19T14:48:22;30.60;92.20
5578;DHT22;2811;51.900;10.734;2023-06-19T14:50:48;30.60;92.10
5578;DHT22;2811;51.900;10.734;2023-06-19T14:53:15;30.20;92.30
5578;DHT22;2811;51.900;10.734;2023-06-19T14:55:42;29.80;93.10
5578;DHT22;2811;51.900;10.734;2023-06-19T14:58:11;29.70;93.20
5578;DHT22;2811;51.900;10.734;2023-06-19T15:00:39;29.70;93.30
5578;DHT22;2811;51.900;10.734;2023-06-19T15:03:06;30.10;92.90
5578;DHT22;2811;51.900;10.734;2023-06-19T15:05:33;30.50;92.40
5578;DHT22;2811;51.900;10.734;2023-06-19T15:08:00;30.40;92.30
5578;DHT22;2811;51.900;10.734;2023-06-19T15:10:28;30.30;92.90
5578;DHT22;2811;51.900;10.734;2023-06-19T15:12:54;30.10;93.20
5578;DHT22;2811;51.900;10.734;2023-06-19T15:15:21;30.10;93.30
5578;DHT22;2811;51.900;10.734;2023-06-19T15:17:49;30.10;93.40
5578;DHT22;2811;51.900;10.734;2023-06-19T15:20:16;29.70;94.00
5578;DHT22;2811;51.900;10.734;2023-06-19T15:22:43;29.50;94.60
5578;DHT22;2811;51.900;10.734;2023-06-19T15:25:10;29.40;94.80
5578;DHT22;2811;51.900;10.734;2023-06-19T15:27:36;29.20;95.00
5578;DHT22;2811;51.900;10.734;2023-06-19T15:30:04;29.10;95.40
5578;DHT22;2811;51.900;10.734;2023-06-19T15:32:31;29.00;95.70
5578;DHT22;2811;51.900;10.734;2023-06-19T15:34:59;29.10;95.70
5578;DHT22;2811;51.900;10.734;2023-06-19T15:37:25;29.20;95.70
5578;DHT22;2811;51.900;10.734;2023-06-19T15:39:52;29.40;95.70
5578;DHT22;2811;51.900;10.734;2023-06-19T15:42:20;29.50;95.50
5578;DHT22;2811;51.900;10.734;2023-06-19T15:44:47;29.40;95.40
5578;DHT22;2811;51.900;10.734;2023-06-19T15:47:14;29.30;95.50